createdAt,value
2017-12-30T00:01:11.864Z,23.90
2017-12-30T00:03:39.653Z,29.93
2017-12-30T00:06:07.532Z,25.03
2017-12-30T00:08:36.092Z,26.40
2017-12-30T00:11:03.917Z,23.60
2017-12-30T00:13:31.762Z,21.20
2017-12-30T00:15:59.555Z,16.10
2017-12-30T00:18:27.433Z,19.03
2017-12-30T00:20:55.250Z,17.53
2017-12-30T00:23:23.085Z,21.80
2017-12-30T00:25:50.871Z,19.70
2017-12-30T00:28:18.950Z,15.13
2017-12-30T00:30:46.824Z,26.37
2017-12-30T00:33:14.707Z,20.63
2017-12-30T00:35:42.662Z,15.80
2017-12-30T00:38:10.536Z,25.40
2017-12-30T00:40:39.147Z,23.97
2017-12-30T00:43:06.958Z,21.13
2017-12-30T00:45:34.794Z,29.77
2017-12-30T00:48:02.612Z,30.73
2017-12-30T00:50:31.254Z,26.77
2017-12-30T00:52:59.087Z,18.10
2017-12-30T00:55:26.921Z,19.57
2017-12-30T00:57:54.810Z,20.33
2017-12-30T01:00:22.617Z,18.43
2017-12-30T01:02:50.443Z,25.60
2017-12-30T01:05:18.248Z,20.10
2017-12-30T01:07:46.061Z,20.23
2017-12-30T01:10:13.884Z,16.27
2017-12-30T01:12:41.690Z,19.13
2017-12-30T01:15:10.269Z,16.60
2017-12-30T01:17:38.099Z,22.47
2017-12-30T01:20:05.939Z,18.10
2017-12-30T01:22:33.733Z,22.90
2017-12-30T01:25:01.561Z,10.20
2017-12-30T01:27:29.426Z,23.47
2017-12-30T01:29:57.242Z,14.57
2017-12-30T01:32:25.057Z,13.30
2017-12-30T01:34:52.864Z,19.50
2017-12-30T01:37:20.650Z,22.23
2017-12-30T01:39:48.503Z,15.57
2017-12-30T01:42:16.364Z,18.20
2017-12-30T01:44:44.182Z,13.33
2017-12-30T01:47:12.118Z,13.90
2017-12-30T01:49:40.707Z,11.10
2017-12-30T01:52:09.286Z,16.50
2017-12-30T01:54:37.181Z,15.43
2017-12-30T01:57:05.121Z,19.43
2017-12-30T01:59:33.740Z,15.60
2017-12-30T02:02:01.584Z,17.13
2017-12-30T02:04:29.448Z,15.13
2017-12-30T02:06:57.312Z,9.67
2017-12-30T02:09:25.107Z,10.47
2017-12-30T02:11:52.930Z,16.23
2017-12-30T02:14:21.505Z,12.13
2017-12-30T02:16:50.171Z,10.57
2017-12-30T02:19:17.990Z,10.97
2017-12-30T02:21:45.856Z,17.63
2017-12-30T02:24:13.705Z,8.40
2017-12-30T02:26:41.571Z,11.63
2017-12-30T02:29:09.391Z,11.20
2017-12-30T02:31:37.208Z,13.17
2017-12-30T02:34:05.001Z,13.20
2017-12-30T02:36:32.900Z,10.40
2017-12-30T02:39:00.696Z,16.12
2017-12-30T02:41:28.575Z,14.23
2017-12-30T02:43:56.467Z,13.43
2017-12-30T02:46:24.295Z,11.43
2017-12-30T02:48:52.125Z,20.67
2017-12-30T02:51:19.935Z,15.50
2017-12-30T02:53:47.715Z,19.87
2017-12-30T02:56:15.508Z,23.60
2017-12-30T02:58:43.309Z,10.53
2017-12-30T03:01:11.100Z,13.50
2017-12-30T03:03:38.913Z,11.17
2017-12-30T03:06:06.718Z,14.07
2017-12-30T03:08:34.519Z,12.07
2017-12-30T03:11:02.369Z,16.87
2017-12-30T03:13:30.223Z,8.37
2017-12-30T03:15:58.100Z,14.73
2017-12-30T03:18:25.908Z,14.50
2017-12-30T03:20:53.772Z,13.33
2017-12-30T03:23:21.606Z,11.33
2017-12-30T03:25:49.464Z,20.80
2017-12-30T03:28:17.317Z,12.17
2017-12-30T03:30:45.274Z,15.00
2017-12-30T03:33:13.200Z,14.13
2017-12-30T03:35:40.987Z,8.37
2017-12-30T03:38:09.584Z,15.13
2017-12-30T03:40:38.171Z,6.60
2017-12-30T03:43:05.951Z,11.30
2017-12-30T03:45:33.757Z,6.73
2017-12-30T03:48:01.577Z,10.97
2017-12-30T03:50:29.490Z,11.77
2017-12-30T03:52:57.291Z,10.17
2017-12-30T03:55:25.112Z,12.77
2017-12-30T03:57:52.990Z,12.10
2017-12-30T04:00:20.803Z,15.40
2017-12-30T04:02:48.623Z,12.30
2017-12-30T04:05:16.499Z,6.67
2017-12-30T04:07:44.324Z,12.95
2017-12-30T04:10:12.107Z,11.03
2017-12-30T04:12:39.946Z,11.03
2017-12-30T04:15:07.894Z,9.50
2017-12-30T04:17:35.701Z,1.90
2017-12-30T04:20:03.577Z,4.97
2017-12-30T04:22:31.424Z,4.33
2017-12-30T04:24:59.215Z,4.07
2017-12-30T04:27:27.071Z,3.83
2017-12-30T04:29:54.963Z,2.33
2017-12-30T04:32:22.802Z,5.70
2017-12-30T04:34:50.612Z,1.07
2017-12-30T04:37:18.434Z,3.83
2017-12-30T04:39:46.564Z,2.37
2017-12-30T04:42:14.490Z,6.10
2017-12-30T04:44:42.291Z,5.20
2017-12-30T04:47:10.218Z,1.90
2017-12-30T04:49:38.022Z,3.07
2017-12-30T04:52:05.908Z,3.13
2017-12-30T04:54:33.804Z,2.20
2017-12-30T04:57:01.656Z,1.30
2017-12-30T04:59:29.551Z,2.13
2017-12-30T05:01:57.431Z,5.80
2017-12-30T05:04:25.311Z,3.23
2017-12-30T05:06:53.118Z,2.03
2017-12-30T05:09:20.916Z,4.73
2017-12-30T05:11:48.723Z,1.87
2017-12-30T05:14:16.611Z,4.93
2017-12-30T05:16:44.428Z,4.03
2017-12-30T05:19:12.223Z,3.30
2017-12-30T05:21:40.035Z,4.37
2017-12-30T05:24:07.824Z,2.97
2017-12-30T05:26:35.650Z,8.57
2017-12-30T05:29:03.543Z,8.10
2017-12-30T05:31:31.371Z,3.53
2017-12-30T05:33:59.222Z,5.50
2017-12-30T05:36:26.990Z,7.67
2017-12-30T05:38:54.792Z,9.20
2017-12-30T05:41:22.750Z,9.23
2017-12-30T05:43:50.689Z,9.70
2017-12-30T05:46:18.476Z,11.13
2017-12-30T05:48:46.363Z,4.70
2017-12-30T05:51:14.169Z,7.70
2017-12-30T05:53:41.979Z,5.20
2017-12-30T05:56:09.754Z,4.90
2017-12-30T05:58:37.536Z,8.53
2017-12-30T06:01:05.332Z,12.03
2017-12-30T06:03:33.218Z,7.00
2017-12-30T06:06:01.086Z,16.43
2017-12-30T06:08:29.053Z,11.90
2017-12-30T06:10:56.879Z,9.50
2017-12-30T06:13:25.453Z,7.30
2017-12-30T06:15:53.248Z,11.97
2017-12-30T06:18:21.123Z,10.90
2017-12-30T06:20:49.433Z,11.40
2017-12-30T06:23:18.446Z,9.40
2017-12-30T06:25:47.055Z,9.97
2017-12-30T06:28:14.894Z,15.17
2017-12-30T06:30:43.312Z,16.77
2017-12-30T06:33:11.135Z,8.77
2017-12-30T06:35:39.024Z,14.93
2017-12-30T06:38:06.855Z,9.53
2017-12-30T06:40:34.722Z,8.87
2017-12-30T06:43:02.537Z,12.83
2017-12-30T06:45:30.356Z,20.83
2017-12-30T06:47:58.165Z,22.80
2017-12-30T06:50:25.980Z,15.43
2017-12-30T06:52:53.802Z,17.73
2017-12-30T06:55:21.875Z,20.23
2017-12-30T06:57:49.706Z,22.00
2017-12-30T07:00:18.313Z,26.20
2017-12-30T07:02:46.113Z,19.57
2017-12-30T07:05:14.020Z,24.33
2017-12-30T07:07:41.857Z,16.23
2017-12-30T07:10:09.706Z,17.00
2017-12-30T07:12:37.529Z,16.30
2017-12-30T07:15:05.375Z,16.13
2017-12-30T07:17:33.232Z,21.50
2017-12-30T07:20:01.092Z,16.83
2017-12-30T07:22:28.976Z,12.00
2017-12-30T07:24:56.844Z,13.77
2017-12-30T07:27:24.647Z,22.23
2017-12-30T07:29:52.518Z,27.30
2017-12-30T07:32:20.389Z,12.87
2017-12-30T07:34:48.261Z,18.07
2017-12-30T07:37:16.945Z,15.50
2017-12-30T07:39:44.827Z,18.37
2017-12-30T07:42:12.731Z,13.30
2017-12-30T07:44:40.592Z,12.07
2017-12-30T07:47:08.418Z,12.73
2017-12-30T07:49:36.203Z,16.63
2017-12-30T07:52:04.055Z,16.47
2017-12-30T07:54:31.872Z,16.93
2017-12-30T07:56:59.708Z,21.37
2017-12-30T07:59:27.579Z,12.27
2017-12-30T08:01:55.427Z,13.80
2017-12-30T08:04:23.284Z,17.30
2017-12-30T08:06:51.183Z,19.57
2017-12-30T08:09:19.829Z,29.47
2017-12-30T08:11:47.651Z,12.23
2017-12-30T08:14:16.231Z,12.73
2017-12-30T08:16:44.853Z,25.13
2017-12-30T08:19:13.485Z,21.87
2017-12-30T08:21:41.325Z,18.03
2017-12-30T08:24:09.226Z,15.57
2017-12-30T08:26:37.063Z,15.57
2017-12-30T08:29:04.853Z,17.43
2017-12-30T08:31:33.449Z,18.77
2017-12-30T08:34:02.037Z,19.83
2017-12-30T08:36:30.598Z,17.70
2017-12-30T08:38:58.461Z,23.40
2017-12-30T08:41:26.332Z,26.90
2017-12-30T08:43:54.968Z,17.97
2017-12-30T08:46:22.796Z,23.57
2017-12-30T08:48:50.633Z,22.63
2017-12-30T08:51:18.518Z,13.97
2017-12-30T08:53:46.366Z,24.43
2017-12-30T08:56:14.260Z,29.30
2017-12-30T08:58:42.221Z,20.57
2017-12-30T09:01:10.821Z,23.33
2017-12-30T09:03:38.684Z,33.93
2017-12-30T09:06:06.509Z,18.37
2017-12-30T09:08:34.321Z,21.63
2017-12-30T09:11:02.199Z,20.43
2017-12-30T09:13:30.146Z,24.73
2017-12-30T09:15:57.991Z,24.20
2017-12-30T09:18:26.644Z,15.67
2017-12-30T09:20:54.446Z,23.27
2017-12-30T09:23:22.344Z,16.37
2017-12-30T09:25:50.247Z,22.90
2017-12-30T09:28:18.096Z,23.97
2017-12-30T09:30:45.929Z,29.30
2017-12-30T09:33:13.768Z,34.60
2017-12-30T09:35:41.652Z,28.07
2017-12-30T09:38:09.500Z,23.47
2017-12-30T09:40:37.325Z,28.10
2017-12-30T09:43:05.200Z,24.73
2017-12-30T09:45:33.008Z,27.93
2017-12-30T09:48:01.600Z,28.13
2017-12-30T09:50:30.266Z,25.47
2017-12-30T09:52:58.884Z,31.60
2017-12-30T09:55:26.711Z,28.20
2017-12-30T09:57:54.530Z,24.53
2017-12-30T10:00:22.388Z,25.67
2017-12-30T10:02:50.291Z,26.73
2017-12-30T10:05:18.125Z,24.23
2017-12-30T10:07:46.020Z,27.67
2017-12-30T10:10:13.891Z,29.00
2017-12-30T10:12:41.713Z,27.80
2017-12-30T10:15:09.555Z,30.80
2017-12-30T10:17:38.183Z,25.57
2017-12-30T10:20:06.053Z,37.70
2017-12-30T10:22:34.038Z,30.73
2017-12-30T10:25:01.893Z,31.20
2017-12-30T10:27:30.455Z,34.50
2017-12-30T10:29:58.291Z,32.57
2017-12-30T10:32:26.163Z,34.83
2017-12-30T10:34:54.776Z,40.50
2017-12-30T10:37:22.629Z,40.73
2017-12-30T10:39:56.390Z,32.55
2017-12-30T10:42:28.388Z,29.97
2017-12-30T10:44:56.249Z,26.00
2017-12-30T10:47:24.220Z,25.10
2017-12-30T10:49:52.519Z,25.73
2017-12-30T10:52:27.987Z,42.00
2017-12-30T10:54:56.251Z,38.73
2017-12-30T10:57:24.074Z,37.37
2017-12-30T10:59:51.867Z,32.73
2017-12-30T11:02:19.763Z,35.37
2017-12-30T11:04:47.639Z,31.53
2017-12-30T11:07:15.514Z,37.27
2017-12-30T11:09:43.443Z,30.10
2017-12-30T11:12:11.346Z,33.97
2017-12-30T11:14:39.151Z,30.80
2017-12-30T11:17:07.498Z,34.83
2017-12-30T11:19:36.075Z,32.53
2017-12-30T11:22:03.902Z,33.60
2017-12-30T11:24:31.712Z,34.50
2017-12-30T11:26:59.531Z,33.30
2017-12-30T11:29:27.333Z,34.70
2017-12-30T11:31:55.335Z,34.33
2017-12-30T11:34:23.964Z,25.00
2017-12-30T11:36:51.780Z,26.10
2017-12-30T11:39:20.363Z,22.37
2017-12-30T11:41:48.992Z,36.23
2017-12-30T11:44:16.872Z,35.43
2017-12-30T11:46:44.711Z,27.77
2017-12-30T11:49:12.541Z,33.50
2017-12-30T11:51:41.139Z,36.10
2017-12-30T11:54:08.957Z,36.87
2017-12-30T11:56:36.802Z,52.90
2017-12-30T11:59:05.259Z,28.17
2017-12-30T12:01:33.060Z,30.43
2017-12-30T12:04:00.881Z,30.07
2017-12-30T12:06:28.668Z,31.23
2017-12-30T12:08:56.695Z,29.97
2017-12-30T12:11:24.587Z,29.73
2017-12-30T12:13:52.499Z,29.10
2017-12-30T12:16:20.283Z,22.83
2017-12-30T12:18:48.217Z,29.50
2017-12-30T12:21:16.104Z,24.27
2017-12-30T12:23:43.945Z,19.67
2017-12-30T12:26:11.820Z,21.23
2017-12-30T12:28:39.736Z,21.37
2017-12-30T12:31:09.400Z,19.90
2017-12-30T12:33:37.277Z,23.90
2017-12-30T12:36:05.106Z,17.27
2017-12-30T12:38:32.984Z,18.53
2017-12-30T12:41:02.664Z,22.90
2017-12-30T12:43:30.703Z,19.53
2017-12-30T12:45:58.570Z,24.40
2017-12-30T12:48:26.471Z,18.60
2017-12-30T12:50:54.613Z,19.03
2017-12-30T12:53:22.507Z,21.30
2017-12-30T12:55:50.331Z,26.80
2017-12-30T12:58:18.346Z,19.30
2017-12-30T13:00:46.726Z,19.43
2017-12-30T13:03:14.640Z,17.53
2017-12-30T13:05:42.476Z,16.27
2017-12-30T13:08:10.301Z,16.83
2017-12-30T13:10:38.867Z,16.60
2017-12-30T13:13:06.680Z,16.67
2017-12-30T13:15:34.561Z,20.57
2017-12-30T13:18:02.368Z,24.50
2017-12-30T13:20:30.231Z,19.47
2017-12-30T13:22:58.162Z,20.20
2017-12-30T13:25:26.009Z,20.70
2017-12-30T13:27:53.941Z,16.17
2017-12-30T13:30:22.495Z,17.20
2017-12-30T13:32:50.301Z,17.70
2017-12-30T13:35:18.130Z,19.30
2017-12-30T13:37:45.915Z,21.00
2017-12-30T13:40:13.700Z,27.90
2017-12-30T13:42:42.330Z,28.33
2017-12-30T13:45:10.190Z,34.87
2017-12-30T13:47:38.106Z,29.97
2017-12-30T13:50:06.731Z,41.03
2017-12-30T13:52:34.552Z,49.07
2017-12-30T13:55:02.427Z,41.63
2017-12-30T13:57:30.293Z,57.73
2017-12-30T13:59:58.121Z,50.77
2017-12-30T14:02:26.891Z,54.30
2017-12-30T14:04:54.737Z,47.80
2017-12-30T14:07:22.552Z,63.47
2017-12-30T14:09:50.354Z,53.47
2017-12-30T14:12:18.208Z,52.40
2017-12-30T14:14:46.105Z,54.37
2017-12-30T14:17:14.771Z,54.60
2017-12-30T14:19:42.647Z,62.57
2017-12-30T14:22:10.544Z,54.70
2017-12-30T14:24:39.931Z,53.85
2017-12-30T14:27:07.829Z,52.57
2017-12-30T14:29:35.722Z,47.63
2017-12-30T14:32:04.307Z,51.60
2017-12-30T14:34:32.855Z,45.43
2017-12-30T14:37:00.741Z,55.13
2017-12-30T14:39:29.108Z,51.23
2017-12-30T14:41:56.900Z,49.20
2017-12-30T14:44:24.833Z,46.03
2017-12-30T14:46:55.395Z,46.03
2017-12-30T14:49:25.157Z,51.83
2017-12-30T14:51:53.041Z,49.77
2017-12-30T14:54:20.842Z,46.30
2017-12-30T14:56:48.749Z,49.60
2017-12-30T14:59:17.261Z,46.90
2017-12-30T15:01:45.094Z,40.43
2017-12-30T15:04:13.088Z,42.00
2017-12-30T15:06:41.035Z,39.37
2017-12-30T15:09:08.847Z,34.50
2017-12-30T15:11:37.435Z,38.63
2017-12-30T15:14:07.002Z,29.37
2017-12-30T15:16:34.908Z,35.00
2017-12-30T15:19:03.476Z,31.90
2017-12-30T15:21:31.355Z,38.13
2017-12-30T15:24:00.103Z,31.70
2017-12-30T15:26:27.941Z,36.53
2017-12-30T15:28:55.964Z,33.80
2017-12-30T15:31:23.790Z,39.00
2017-12-30T15:33:52.431Z,30.37
2017-12-30T15:36:20.293Z,34.00
2017-12-30T15:38:48.132Z,39.50
2017-12-30T15:41:15.951Z,33.77
2017-12-30T15:43:43.852Z,33.03
2017-12-30T15:46:11.663Z,29.13
2017-12-30T15:48:39.496Z,30.13
2017-12-30T15:51:08.364Z,31.17
2017-12-30T15:53:36.253Z,31.83
2017-12-30T15:56:04.072Z,30.30
2017-12-30T15:58:31.925Z,29.70
2017-12-30T16:00:59.784Z,29.23
2017-12-30T16:03:28.400Z,24.50
2017-12-30T16:05:56.235Z,27.20
2017-12-30T16:08:24.068Z,25.83
2017-12-30T16:10:52.709Z,24.53
2017-12-30T16:13:22.871Z,22.60
2017-12-30T16:15:50.739Z,25.33
2017-12-30T16:18:18.519Z,25.50
2017-12-30T16:20:46.303Z,24.57
2017-12-30T16:23:14.147Z,31.63
2017-12-30T16:25:42.049Z,23.90
2017-12-30T16:28:09.852Z,23.20
2017-12-30T16:30:37.655Z,23.17
2017-12-30T16:33:05.500Z,30.87
2017-12-30T16:35:33.366Z,36.57
2017-12-30T16:38:01.248Z,28.20
2017-12-30T16:40:29.844Z,33.93
2017-12-30T16:42:57.759Z,32.70
2017-12-30T16:45:25.633Z,36.67
2017-12-30T16:47:53.452Z,32.30
2017-12-30T17:03:42.150Z,30.37
2017-12-30T17:06:10.066Z,33.03
2017-12-30T17:08:37.847Z,31.40
2017-12-30T17:11:05.668Z,33.43
2017-12-30T17:13:33.511Z,40.07
2017-12-30T17:16:01.304Z,41.77
2017-12-30T17:18:29.119Z,36.30
2017-12-30T17:20:57.014Z,32.07
2017-12-30T17:23:24.835Z,39.00
2017-12-30T17:25:52.629Z,35.03
2017-12-30T17:28:20.617Z,30.67
2017-12-30T17:30:48.460Z,37.57
2017-12-30T17:33:16.287Z,37.90
2017-12-30T17:35:44.202Z,36.73
2017-12-30T17:38:12.851Z,36.67
2017-12-30T17:40:40.710Z,42.13
2017-12-30T17:43:08.544Z,41.70
2017-12-30T17:45:36.404Z,40.50
2017-12-30T17:48:05.116Z,38.00
2017-12-30T17:50:32.980Z,43.53
2017-12-30T17:53:01.596Z,41.03
2017-12-30T17:55:29.499Z,48.40
2017-12-30T17:57:57.440Z,47.90
2017-12-30T18:00:25.260Z,54.17
2017-12-30T18:02:53.989Z,61.03
2017-12-30T18:05:21.909Z,55.37
2017-12-30T18:07:50.645Z,57.87
2017-12-30T18:10:18.495Z,57.50
2017-12-30T18:12:46.329Z,58.10
2017-12-30T18:15:14.954Z,59.07
2017-12-30T18:17:42.846Z,58.50
2017-12-30T18:20:10.673Z,55.30
2017-12-30T18:22:39.745Z,62.70
2017-12-30T18:25:08.388Z,69.20
2017-12-30T18:27:36.175Z,61.53
2017-12-30T18:30:04.019Z,57.53
2017-12-30T18:32:31.906Z,55.80
2017-12-30T18:34:59.829Z,60.23
2017-12-30T18:37:28.508Z,54.63
2017-12-30T18:39:56.367Z,54.53
2017-12-30T18:42:24.242Z,62.50
2017-12-30T18:44:52.093Z,59.87
2017-12-30T18:47:19.908Z,58.70
2017-12-30T18:49:47.737Z,62.07
2017-12-30T18:52:15.608Z,55.70
2017-12-30T18:54:43.459Z,59.53
2017-12-30T18:57:11.296Z,71.43
2017-12-30T18:59:39.947Z,58.10
2017-12-30T19:02:07.804Z,63.43
2017-12-30T19:04:35.629Z,60.60
2017-12-30T19:07:04.207Z,55.57
2017-12-30T19:09:32.836Z,56.13
2017-12-30T19:12:00.678Z,57.37
2017-12-30T19:14:28.516Z,57.33
2017-12-30T19:16:57.075Z,60.93
2017-12-30T19:19:24.900Z,62.17
2017-12-30T19:21:52.724Z,57.75
2017-12-30T19:24:21.388Z,51.80
2017-12-30T19:26:49.339Z,49.47
2017-12-30T19:29:17.209Z,61.33
2017-12-30T19:31:45.032Z,52.33
2017-12-30T19:34:12.877Z,51.43
2017-12-30T19:36:41.467Z,47.00
2017-12-30T19:39:10.264Z,83.23
2017-12-30T19:41:38.144Z,73.30
2017-12-30T19:44:05.924Z,63.23
2017-12-30T19:46:33.802Z,87.53
2017-12-30T19:49:01.592Z,74.53
2017-12-30T19:51:29.406Z,59.97
2017-12-30T19:53:59.275Z,54.40
2017-12-30T19:56:27.142Z,80.20
2017-12-30T19:58:55.704Z,56.53
2017-12-30T20:01:23.514Z,66.10
2017-12-30T20:03:52.226Z,49.40
2017-12-30T20:06:20.065Z,55.87
2017-12-30T20:08:48.698Z,53.37
2017-12-30T20:11:16.543Z,37.73
2017-12-30T20:13:44.364Z,28.17
2017-12-30T20:16:12.921Z,30.13
2017-12-30T20:18:40.809Z,33.87
2017-12-30T20:21:08.788Z,32.23
2017-12-30T20:23:37.747Z,34.70
2017-12-30T20:26:05.661Z,38.67
2017-12-30T20:28:33.638Z,38.90
2017-12-30T20:31:01.465Z,33.13
2017-12-30T20:33:29.327Z,41.60
2017-12-30T20:35:57.181Z,42.43
2017-12-30T20:38:25.004Z,31.50
2017-12-30T20:40:52.898Z,38.10
2017-12-30T20:43:20.742Z,46.67
2017-12-30T20:45:48.548Z,38.03
2017-12-30T20:48:16.410Z,40.03
2017-12-30T20:50:44.246Z,39.97
2017-12-30T20:53:12.034Z,44.23
2017-12-30T20:55:39.838Z,46.43
2017-12-30T20:58:07.651Z,42.50
2017-12-30T21:00:35.436Z,46.53
2017-12-30T21:03:03.263Z,41.23
2017-12-30T21:05:31.109Z,47.70
2017-12-30T21:07:59.028Z,49.17
2017-12-30T21:10:26.873Z,50.57
2017-12-30T21:12:54.850Z,50.43
2017-12-30T21:15:22.702Z,46.87
2017-12-30T21:17:50.509Z,50.20
2017-12-30T21:20:18.299Z,54.67
2017-12-30T21:22:47.002Z,46.20
2017-12-30T21:25:14.808Z,49.70
2017-12-30T21:27:42.649Z,45.90
2017-12-30T21:30:10.540Z,48.80
2017-12-30T21:32:38.430Z,55.30
2017-12-30T21:35:06.244Z,62.23
2017-12-30T21:37:34.134Z,66.23
2017-12-30T21:40:02.120Z,54.83
2017-12-30T21:42:30.246Z,59.50
2017-12-30T21:44:58.285Z,67.53
2017-12-30T21:47:26.403Z,59.03
2017-12-30T21:49:55.208Z,73.37
2017-12-30T21:52:23.238Z,64.37
2017-12-30T21:54:51.117Z,71.57
2017-12-30T21:57:19.034Z,77.57
2017-12-30T21:59:47.710Z,71.13
2017-12-30T22:02:15.755Z,69.33
2017-12-30T22:04:44.716Z,78.03
2017-12-30T22:07:13.128Z,75.40
2017-12-30T22:09:41.128Z,81.67
2017-12-30T22:12:09.111Z,78.80
2017-12-30T22:14:38.045Z,71.70
2017-12-30T22:17:07.088Z,65.77
2017-12-30T22:19:36.024Z,73.83
2017-12-30T22:22:04.050Z,68.33
2017-12-30T22:24:32.847Z,72.10
2017-12-30T22:27:00.956Z,74.80
2017-12-30T22:29:29.228Z,74.60
2017-12-30T22:31:58.058Z,79.67
2017-12-30T22:34:26.280Z,65.73
2017-12-30T22:36:54.293Z,72.20
2017-12-30T22:39:27.085Z,70.33
2017-12-30T22:41:55.076Z,81.30
2017-12-30T22:44:24.058Z,71.20
2017-12-30T22:46:52.193Z,68.50
2017-12-30T22:49:20.276Z,69.07
2017-12-30T22:51:48.373Z,71.97
2017-12-30T22:54:17.058Z,69.30
2017-12-30T22:56:44.973Z,73.00
2017-12-30T22:59:12.819Z,70.20
2017-12-30T23:01:41.420Z,69.00
2017-12-30T23:04:19.441Z,73.40
2017-12-30T23:06:50.665Z,63.10
2017-12-30T23:09:18.901Z,63.93
2017-12-30T23:11:46.779Z,63.17
2017-12-30T23:14:14.626Z,53.47
2017-12-30T23:16:42.487Z,59.47
2017-12-30T23:19:10.339Z,62.93
2017-12-30T23:21:38.227Z,59.37
2017-12-30T23:24:06.136Z,60.43
2017-12-30T23:26:33.993Z,61.40
2017-12-30T23:29:01.931Z,65.30
2017-12-30T23:31:29.735Z,62.00
2017-12-30T23:33:57.533Z,54.40
2017-12-30T23:36:26.562Z,54.07
2017-12-30T23:38:54.434Z,58.10
2017-12-30T23:41:22.308Z,61.90
2017-12-30T23:43:50.876Z,68.03
2017-12-30T23:46:18.673Z,60.43
2017-12-30T23:48:46.547Z,64.13
2017-12-30T23:51:14.470Z,59.53
2017-12-30T23:53:42.376Z,66.73
2017-12-30T23:56:10.203Z,66.77
2017-12-30T23:58:38.044Z,67.10
